Time;durP1;ratioP1;P1;durP2;ratioP2;P2;SDS_P1;SDS_P2;PMS_P1;PMS_P2;Temp;Humidity;BMP_temperature;BMP_pressure;BME280_temperature;BME280_humidity;BME280_pressure;Samples;Min_cycle;Max_cycle;Signal;HPM_P1;HPM_P2
2023/03/16 00:00:20;;;;;;;3.30;1.83;;;;;;;;;;6230875;28;20198;-55
2023/03/16 00:03:21;;;;;;;3.73;1.73;;;;;;;;;;6226374;28;20195;-55
2023/03/16 00:06:22;;;;;;;3.00;1.50;;;;;;;;;;6225217;28;20190;-55
2023/03/16 00:09:29;;;;;;;2.77;1.37;;;;;;;;;;6231744;28;20280;-56
2023/03/16 00:12:33;;;;;;;1.43;1.33;;;;;;;;;;6233902;28;20191;-57
2023/03/16 00:15:34;;;;;;;3.40;1.93;;;;;;;;;;6219018;28;20207;-57
2023/03/16 00:18:40;;;;;;;2.07;1.60;;;;;;;;;;6246195;28;20194;-57
2023/03/16 00:21:41;;;;;;;2.10;1.60;;;;;;;;;;6234492;28;20223;-56
2023/03/16 00:24:42;;;;;;;2.47;1.83;;;;;;;;;;6233001;28;20210;-57
2023/03/16 00:27:43;;;;;;;4.77;1.90;;;;;;;;;;6247243;28;20191;-53
2023/03/16 00:30:46;;;;;;;2.30;1.60;;;;;;;;;;6219236;28;20193;-56
2023/03/16 00:33:47;;;;;;;2.53;1.60;;;;;;;;;;6233672;28;20194;-56
2023/03/16 00:36:48;;;;;;;2.10;1.20;;;;;;;;;;6245425;28;20244;-55
2023/03/16 00:39:50;;;;;;;3.10;1.53;;;;;;;;;;6216618;28;20202;-53
2023/03/16 00:42:53;;;;;;;1.97;1.40;;;;;;;;;;6249672;28;20226;-55
2023/03/16 00:46:00;;;;;;;2.50;1.90;;;;;;;;;;6225448;28;20306;-56
2023/03/16 00:49:01;;;;;;;2.87;1.87;;;;;;;;;;6235098;28;20218;-57
2023/03/16 00:52:06;;;;;;;1.37;1.27;;;;;;;;;;6244329;28;20244;-55
2023/03/16 00:55:07;;;;;;;2.10;1.03;;;;;;;;;;6237715;28;20251;-55
2023/03/16 00:58:08;;;;;;;1.40;1.20;;;;;;;;;;6234894;28;20225;-56
2023/03/16 01:01:12;;;;;;;2.30;1.30;;;;;;;;;;6229427;28;20193;-57
2023/03/16 01:04:13;;;;;;;1.20;1.10;;;;;;;;;;6245292;28;20214;-56
2023/03/16 01:07:14;;;;;;;2.10;1.07;;;;;;;;;;6232376;28;20198;-55
2023/03/16 01:10:16;;;;;;;2.57;1.23;;;;;;;;;;6227563;28;20201;-56
2023/03/16 01:13:17;;;;;;;2.03;1.40;;;;;;;;;;6226253;28;20191;-55
2023/03/16 01:16:18;;;;;;;2.57;1.67;;;;;;;;;;6232112;28;20202;-57
2023/03/16 01:19:21;;;;;;;1.57;1.47;;;;;;;;;;6227589;28;20210;-55
2023/03/16 01:22:22;;;;;;;4.33;1.20;;;;;;;;;;6232515;28;20190;-55
2023/03/16 01:25:23;;;;;;;1.33;1.10;;;;;;;;;;6229607;28;20223;-55
2023/03/16 01:28:25;;;;;;;1.47;1.37;;;;;;;;;;6227100;28;20194;-55
2023/03/16 01:31:28;;;;;;;2.13;1.27;;;;;;;;;;6237092;28;20190;-57
2023/03/16 01:34:29;;;;;;;1.10;1.00;;;;;;;;;;6245349;28;20244;-57
2023/03/16 01:37:30;;;;;;;2.00;1.43;;;;;;;;;;6233134;28;20242;-57
2023/03/16 01:40:31;;;;;;;1.60;1.40;;;;;;;;;;6230064;28;20203;-55
2023/03/16 01:43:34;;;;;;;2.40;1.47;;;;;;;;;;6226247;28;20214;-56
2023/03/16 01:46:35;;;;;;;1.90;1.30;;;;;;;;;;6243443;28;20187;-56
2023/03/16 01:49:37;;;;;;;3.20;1.63;;;;;;;;;;6226758;28;20245;-56
2023/03/16 01:52:39;;;;;;;2.43;1.23;;;;;;;;;;6240121;28;20279;-57
2023/03/16 01:55:41;;;;;;;2.50;1.40;;;;;;;;;;6248785;28;20194;-54
2023/03/16 01:58:43;;;;;;;1.33;1.23;;;;;;;;;;6242985;28;20190;-56
2023/03/16 02:01:45;;;;;;;1.50;1.40;;;;;;;;;;6239785;28;20195;-57
2023/03/16 02:04:53;;;;;;;1.33;1.17;;;;;;;;;;6245506;28;20302;-56
2023/03/16 02:07:57;;;;;;;1.83;1.73;;;;;;;;;;6247218;28;20277;-56
2023/03/16 02:10:59;;;;;;;1.23;1.10;;;;;;;;;;6226659;28;20194;-57
2023/03/16 02:14:04;;;;;;;1.10;1.00;;;;;;;;;;6231303;28;20201;-54
2023/03/16 02:17:05;;;;;;;1.20;1.07;;;;;;;;;;6242526;28;20198;-57
2023/03/16 02:20:10;;;;;;;1.53;1.30;;;;;;;;;;6231422;28;20205;-55
2023/03/16 02:23:19;;;;;;;1.50;1.20;;;;;;;;;;6239312;28;20201;-54
2023/03/16 02:26:36;;;;;;;1.77;1.20;;;;;;;;;;6230440;28;20194;-56
2023/03/16 02:29:46;;;;;;;3.13;1.50;;;;;;;;;;6244055;28;20190;-56
2023/03/16 02:32:50;;;;;;;3.17;1.37;;;;;;;;;;6244674;28;20205;-54
2023/03/16 02:35:51;;;;;;;2.30;1.30;;;;;;;;;;6242257;28;20243;-55
2023/03/16 02:38:52;;;;;;;2.43;1.77;;;;;;;;;;6232917;28;20217;-55
2023/03/16 02:41:53;;;;;;;1.80;1.30;;;;;;;;;;6225473;28;20198;-56
2023/03/16 02:44:56;;;;;;;1.27;1.17;;;;;;;;;;6240425;28;20298;-57
2023/03/16 02:47:58;;;;;;;2.33;1.60;;;;;;;;;;6238304;28;20226;-56
2023/03/16 02:50:59;;;;;;;1.43;1.27;;;;;;;;;;6224783;28;20179;-56
2023/03/16 02:54:00;;;;;;;1.63;1.50;;;;;;;;;;6223393;28;20196;-55
2023/03/16 02:57:01;;;;;;;2.83;1.70;;;;;;;;;;6230191;28;20261;-56
2023/03/16 03:00:10;;;;;;;3.07;1.90;;;;;;;;;;6233228;28;20281;-57
2023/03/16 03:03:11;;;;;;;3.13;1.53;;;;;;;;;;6243552;28;20202;-53
2023/03/16 03:06:12;;;;;;;2.97;1.90;;;;;;;;;;6225454;28;20198;-56
2023/03/16 03:09:13;;;;;;;3.10;1.63;;;;;;;;;;6227105;28;20205;-52
2023/03/16 03:12:14;;;;;;;1.60;1.40;;;;;;;;;;6215402;28;20204;-55
2023/03/16 03:15:17;;;;;;;1.60;1.30;;;;;;;;;;6247924;28;20190;-55
2023/03/16 03:18:30;;;;;;;3.20;1.40;;;;;;;;;;6251134;28;20217;-57
2023/03/16 03:21:31;;;;;;;2.07;1.60;;;;;;;;;;6245020;28;20187;-56
2023/03/16 03:24:33;;;;;;;2.63;1.30;;;;;;;;;;6231860;28;20216;-56
2023/03/16 03:27:34;;;;;;;3.63;1.40;;;;;;;;;;6250175;28;20178;-55
2023/03/16 03:30:36;;;;;;;1.20;1.00;;;;;;;;;;6238267;28;20202;-54
2023/03/16 03:33:37;;;;;;;0.90;0.90;;;;;;;;;;6258832;28;20231;-57
2023/03/16 03:36:38;;;;;;;1.90;1.40;;;;;;;;;;6233566;28;20376;-57
2023/03/16 03:39:39;;;;;;;1.43;1.10;;;;;;;;;;6244744;28;20194;-56
2023/03/16 03:42:40;;;;;;;1.37;1.20;;;;;;;;;;6228945;28;20197;-56
2023/03/16 03:45:41;;;;;;;1.67;1.10;;;;;;;;;;6249839;28;20244;-55
2023/03/16 03:48:42;;;;;;;1.00;0.70;;;;;;;;;;6225906;28;20210;-56
2023/03/16 03:51:43;;;;;;;1.13;1.03;;;;;;;;;;6227372;28;20209;-57
2023/03/16 03:54:45;;;;;;;2.33;0.90;;;;;;;;;;6243145;28;20195;-55
2023/03/16 03:57:46;;;;;;;1.93;1.10;;;;;;;;;;6225456;28;20198;-57
2023/03/16 04:00:47;;;;;;;1.93;1.17;;;;;;;;;;6229067;28;20215;-56
2023/03/16 04:03:48;;;;;;;0.80;0.73;;;;;;;;;;6247394;28;20213;-55
2023/03/16 04:06:50;;;;;;;1.10;0.90;;;;;;;;;;6235672;28;20197;-52
2023/03/16 04:09:51;;;;;;;1.00;1.00;;;;;;;;;;6231493;28;20186;-55
2023/03/16 04:12:52;;;;;;;1.10;1.00;;;;;;;;;;6229408;28;20187;-56
2023/03/16 04:15:57;;;;;;;1.23;1.00;;;;;;;;;;6250050;28;20191;-53
2023/03/16 04:18:58;;;;;;;0.70;0.70;;;;;;;;;;6244007;28;20230;-56
2023/03/16 04:21:59;;;;;;;1.97;0.83;;;;;;;;;;6224206;28;20285;-56
2023/03/16 04:25:02;;;;;;;1.00;0.90;;;;;;;;;;6234016;28;20234;-55
2023/03/16 04:28:03;;;;;;;1.50;0.70;;;;;;;;;;6231698;28;20239;-56
2023/03/16 04:31:06;;;;;;;0.73;0.73;;;;;;;;;;6225725;28;20318;-55
2023/03/16 04:34:07;;;;;;;0.70;0.70;;;;;;;;;;6249768;28;20220;-56
2023/03/16 04:37:08;;;;;;;0.77;0.77;;;;;;;;;;6245653;28;20282;-57
2023/03/16 04:40:15;;;;;;;0.87;0.73;;;;;;;;;;6225386;28;20249;-56
2023/03/16 04:43:16;;;;;;;0.80;0.80;;;;;;;;;;6254910;28;20202;-55
2023/03/16 04:46:17;;;;;;;1.37;0.80;;;;;;;;;;6228257;28;20240;-56
2023/03/16 04:49:19;;;;;;;0.83;0.83;;;;;;;;;;6245241;28;20216;-52
2023/03/16 04:52:20;;;;;;;1.80;1.30;;;;;;;;;;6246369;28;20193;-55
2023/03/16 04:55:21;;;;;;;1.37;0.83;;;;;;;;;;6217433;28;20209;-57
2023/03/16 04:58:23;;;;;;;1.20;0.90;;;;;;;;;;6249024;28;20281;-52
2023/03/16 05:01:24;;;;;;;5.03;1.93;;;;;;;;;;6241627;28;20264;-53
2023/03/16 05:04:25;;;;;;;2.93;1.50;;;;;;;;;;6224705;28;20218;-56
2023/03/16 05:07:26;;;;;;;1.50;1.00;;;;;;;;;;6233531;28;20190;-53
2023/03/16 05:10:27;;;;;;;1.00;1.00;;;;;;;;;;6226024;28;20210;-56
2023/03/16 05:13:28;;;;;;;1.17;0.93;;;;;;;;;;6242700;28;20192;-52
2023/03/16 05:16:29;;;;;;;1.37;1.00;;;;;;;;;;6246348;28;20273;-52
2023/03/16 05:19:30;;;;;;;1.17;0.97;;;;;;;;;;6226816;28;20184;-54
2023/03/16 05:22:31;;;;;;;2.47;1.10;;;;;;;;;;6240018;28;20194;-56
2023/03/16 05:25:33;;;;;;;0.90;0.90;;;;;;;;;;6231866;28;20278;-54
2023/03/16 05:28:34;;;;;;;2.53;1.17;;;;;;;;;;6237190;28;20222;-55
2023/03/16 05:31:36;;;;;;;1.37;1.13;;;;;;;;;;6224811;28;20204;-55
2023/03/16 05:34:37;;;;;;;5.30;1.27;;;;;;;;;;6239213;28;20195;-56
2023/03/16 05:37:42;;;;;;;0.90;0.73;;;;;;;;;;6229392;28;20249;-54
2023/03/16 05:40:43;;;;;;;1.17;1.00;;;;;;;;;;6221534;28;20202;-55
2023/03/16 05:43:44;;;;;;;1.77;0.87;;;;;;;;;;6227264;28;20219;-56
2023/03/16 05:46:45;;;;;;;0.97;0.80;;;;;;;;;;6246929;28;20186;-54
2023/03/16 05:49:46;;;;;;;0.80;0.80;;;;;;;;;;6228736;28;20213;-56
2023/03/16 05:52:47;;;;;;;1.40;0.80;;;;;;;;;;6246421;28;20272;-55
2023/03/16 05:55:52;;;;;;;1.10;1.00;;;;;;;;;;6231644;28;20213;-54
2023/03/16 05:58:54;;;;;;;0.87;0.80;;;;;;;;;;6228865;28;20205;-56
2023/03/16 06:01:55;;;;;;;1.10;0.70;;;;;;;;;;6239389;28;20198;-54
2023/03/16 06:04:58;;;;;;;1.30;1.03;;;;;;;;;;6221306;28;20241;-56
2023/03/16 06:07:59;;;;;;;1.10;1.00;;;;;;;;;;6221525;28;20187;-54
2023/03/16 06:11:00;;;;;;;1.30;0.97;;;;;;;;;;6240978;28;20207;-55
2023/03/16 06:14:01;;;;;;;0.90;0.90;;;;;;;;;;6228005;28;20198;-55
2023/03/16 06:17:02;;;;;;;2.27;1.30;;;;;;;;;;6221472;28;20191;-53
2023/03/16 06:20:09;;;;;;;0.83;0.83;;;;;;;;;;6230321;28;20204;-52
2023/03/16 06:23:10;;;;;;;4.27;1.93;;;;;;;;;;6240288;28;20191;-51
2023/03/16 06:26:11;;;;;;;5.87;3.40;;;;;;;;;;6222588;28;20699;-55
2023/03/16 06:29:12;;;;;;;3.03;2.40;;;;;;;;;;6230012;28;20185;-52
2023/03/16 06:32:13;;;;;;;3.13;2.00;;;;;;;;;;6227373;28;20200;-54
2023/03/16 06:35:14;;;;;;;3.97;2.00;;;;;;;;;;6225312;28;20201;-55
2023/03/16 06:38:16;;;;;;;3.97;2.03;;;;;;;;;;6220391;28;20256;-53
2023/03/16 06:41:17;;;;;;;4.03;1.90;;;;;;;;;;6238469;28;20200;-54
2023/03/16 06:44:18;;;;;;;4.37;1.90;;;;;;;;;;6238132;28;20226;-55
2023/03/16 06:47:20;;;;;;;3.37;2.10;;;;;;;;;;6244343;28;20193;-55
2023/03/16 06:50:21;;;;;;;3.03;2.07;;;;;;;;;;6247091;28;20178;-52
2023/03/16 06:53:22;;;;;;;3.47;1.93;;;;;;;;;;6226623;28;20221;-53
2023/03/16 06:56:24;;;;;;;2.90;2.17;;;;;;;;;;6248870;28;20197;-54
2023/03/16 06:59:25;;;;;;;5.20;2.67;;;;;;;;;;6250046;28;20233;-54
2023/03/16 07:02:26;;;;;;;2.50;2.13;;;;;;;;;;6233063;28;20260;-53
2023/03/16 07:05:27;;;;;;;3.43;2.10;;;;;;;;;;6232426;28;20221;-52
2023/03/16 07:08:28;;;;;;;3.33;2.10;;;;;;;;;;6229921;28;20187;-52
2023/03/16 07:11:31;;;;;;;1.93;1.70;;;;;;;;;;6232806;28;20209;-51
2023/03/16 07:14:32;;;;;;;3.40;2.03;;;;;;;;;;6224135;28;20249;-52
2023/03/16 07:17:33;;;;;;;2.27;1.73;;;;;;;;;;6240819;28;20198;-55
2023/03/16 07:20:34;;;;;;;2.30;2.10;;;;;;;;;;6225897;28;20195;-53
2023/03/16 07:23:35;;;;;;;1.80;1.70;;;;;;;;;;6216582;28;20240;-53
2023/03/16 07:26:36;;;;;;;2.53;1.63;;;;;;;;;;6221842;28;20191;-53
2023/03/16 07:29:37;;;;;;;3.37;1.87;;;;;;;;;;6231995;28;20191;-52
2023/03/16 07:32:38;;;;;;;2.73;1.90;;;;;;;;;;6218923;28;20233;-54
2023/03/16 07:35:40;;;;;;;3.33;1.83;;;;;;;;;;6240623;28;20238;-51
2023/03/16 07:38:41;;;;;;;4.80;1.90;;;;;;;;;;6216669;28;20233;-54
2023/03/16 07:41:42;;;;;;;3.43;1.90;;;;;;;;;;6226269;28;20292;-53
2023/03/16 07:44:43;;;;;;;4.93;1.70;;;;;;;;;;6229297;28;20251;-53
2023/03/16 07:47:44;;;;;;;1.77;1.43;;;;;;;;;;6237038;28;20281;-53
2023/03/16 07:50:49;;;;;;;1.33;1.23;;;;;;;;;;6229733;28;20191;-55
2023/03/16 07:53:50;;;;;;;1.00;0.90;;;;;;;;;;6224771;28;20202;-50
2023/03/16 07:56:51;;;;;;;1.20;1.10;;;;;;;;;;6234538;28;20283;-54
2023/03/16 07:59:52;;;;;;;1.00;1.00;;;;;;;;;;6243089;28;20210;-55
2023/03/16 08:02:55;;;;;;;1.30;1.20;;;;;;;;;;6231689;28;20194;-52
2023/03/16 08:05:56;;;;;;;0.83;0.83;;;;;;;;;;6216329;28;20222;-55
2023/03/16 08:08:57;;;;;;;0.70;0.70;;;;;;;;;;6229529;28;20195;-55
2023/03/16 08:11:58;;;;;;;1.73;1.00;;;;;;;;;;6240980;28;20230;-54
2023/03/16 08:15:00;;;;;;;0.73;0.73;;;;;;;;;;6222107;28;20195;-52
2023/03/16 08:18:01;;;;;;;1.50;1.10;;;;;;;;;;6237733;28;20187;-54
2023/03/16 08:21:02;;;;;;;0.97;0.87;;;;;;;;;;6239525;28;20203;-54
2023/03/16 08:24:03;;;;;;;0.73;0.73;;;;;;;;;;6239290;28;20210;-51
2023/03/16 08:27:04;;;;;;;0.80;0.80;;;;;;;;;;6248268;28;20194;-54
2023/03/16 08:30:07;;;;;;;1.13;0.90;;;;;;;;;;6239873;28;20197;-54
2023/03/16 08:33:08;;;;;;;1.00;0.90;;;;;;;;;;6244790;28;20181;-53
2023/03/16 08:36:10;;;;;;;0.80;0.80;;;;;;;;;;6229445;28;20242;-53
2023/03/16 08:39:11;;;;;;;0.90;0.90;;;;;;;;;;6247352;28;20202;-53
2023/03/16 08:42:14;;;;;;;1.13;1.03;;;;;;;;;;6238964;28;20202;-56
2023/03/16 08:45:16;;;;;;;0.87;0.87;;;;;;;;;;6232577;28;20214;-53
2023/03/16 08:48:17;;;;;;;0.90;0.90;;;;;;;;;;6244862;28;20198;-54
2023/03/16 08:51:18;;;;;;;0.70;0.70;;;;;;;;;;6230470;28;20241;-54
2023/03/16 08:54:19;;;;;;;1.13;1.00;;;;;;;;;;6230411;28;20209;-53
2023/03/16 08:57:21;;;;;;;0.80;0.80;;;;;;;;;;6238860;28;20209;-55
2023/03/16 09:00:23;;;;;;;2.73;1.00;;;;;;;;;;6230970;28;20205;-52
2023/03/16 09:03:25;;;;;;;0.87;0.87;;;;;;;;;;6225200;28;20205;-55
2023/03/16 09:06:26;;;;;;;1.60;1.10;;;;;;;;;;6226307;28;20246;-54
2023/03/16 09:09:27;;;;;;;1.37;1.27;;;;;;;;;;6227834;28;20199;-52
2023/03/16 09:12:28;;;;;;;1.07;1.00;;;;;;;;;;6221316;28;20195;-55
2023/03/16 09:15:30;;;;;;;1.30;1.20;;;;;;;;;;6239983;28;20199;-53
2023/03/16 09:18:31;;;;;;;0.90;0.90;;;;;;;;;;6228853;28;20195;-53
2023/03/16 09:21:35;;;;;;;0.87;0.87;;;;;;;;;;6239016;28;20199;-55
2023/03/16 09:24:36;;;;;;;0.80;0.80;;;;;;;;;;6221970;28;20305;-52
2023/03/16 09:27:37;;;;;;;1.70;1.10;;;;;;;;;;6242070;28;20289;-54
2023/03/16 09:30:38;;;;;;;1.63;0.90;;;;;;;;;;6236625;28;20182;-55
2023/03/16 09:33:39;;;;;;;1.53;1.10;;;;;;;;;;6214933;28;20247;-52
2023/03/16 09:36:40;;;;;;;0.90;0.90;;;;;;;;;;6230235;28;20271;-51
2023/03/16 09:39:42;;;;;;;1.00;0.90;;;;;;;;;;6238779;28;20190;-53
2023/03/16 09:42:48;;;;;;;1.10;1.00;;;;;;;;;;6222192;28;20205;-54
2023/03/16 09:45:59;;;;;;;1.10;1.00;;;;;;;;;;6226760;28;20225;-55
2023/03/16 09:49:01;;;;;;;0.80;0.80;;;;;;;;;;6228041;28;20192;-53
2023/03/16 09:52:21;;;;;;;0.80;0.80;;;;;;;;;;6222439;28;20191;-53
2023/03/16 09:55:27;;;;;;;0.67;0.63;;;;;;;;;;6241271;28;20443;-50
2023/03/16 09:58:28;;;;;;;3.03;0.80;;;;;;;;;;6246959;28;20229;-54
2023/03/16 10:01:35;;;;;;;0.70;0.70;;;;;;;;;;6230147;28;20190;-54
2023/03/16 10:04:53;;;;;;;2.20;0.70;;;;;;;;;;6238262;28;20211;-54
2023/03/16 10:08:00;;;;;;;0.80;0.80;;;;;;;;;;6234586;28;20197;-51
2023/03/16 10:11:01;;;;;;;2.03;1.10;;;;;;;;;;6237051;28;20198;-53
2023/03/16 10:14:08;;;;;;;0.70;0.70;;;;;;;;;;6239389;28;20194;-52
2023/03/16 10:17:20;;;;;;;0.80;0.70;;;;;;;;;;6243626;28;20310;-51
2023/03/16 10:20:22;;;;;;;0.80;0.80;;;;;;;;;;6232497;28;20273;-55
2023/03/16 10:23:24;;;;;;;1.10;1.00;;;;;;;;;;6239424;28;20199;-52
2023/03/16 10:26:30;;;;;;;0.63;0.60;;;;;;;;;;6238317;28;20202;-53
2023/03/16 10:29:35;;;;;;;3.00;1.10;;;;;;;;;;6224629;28;20194;-54
2023/03/16 10:32:37;;;;;;;0.90;0.80;;;;;;;;;;6243339;28;20211;-53
2023/03/16 10:35:49;;;;;;;2.03;0.83;;;;;;;;;;6226673;28;20249;-51
2023/03/16 10:38:54;;;;;;;0.73;0.70;;;;;;;;;;6239843;28;20191;-52
2023/03/16 10:41:56;;;;;;;1.10;1.00;;;;;;;;;;6243297;28;20191;-52
2023/03/16 10:44:58;;;;;;;0.97;0.90;;;;;;;;;;6238427;28;20246;-52
2023/03/16 10:48:27;;;;;;;1.13;0.90;;;;;;;;;;6233110;28;20183;-55
2023/03/16 10:51:36;;;;;;;1.30;1.03;;;;;;;;;;6226033;28;20203;-56
2023/03/16 10:54:39;;;;;;;2.03;1.00;;;;;;;;;;6242626;28;20201;-53
2023/03/16 10:57:41;;;;;;;1.80;1.17;;;;;;;;;;6232245;28;20269;-54
2023/03/16 11:00:44;;;;;;;1.30;1.20;;;;;;;;;;6239528;28;20187;-53
2023/03/16 11:03:49;;;;;;;1.10;1.00;;;;;;;;;;6245258;28;20190;-54
2023/03/16 11:06:55;;;;;;;2.37;1.20;;;;;;;;;;6240906;28;20214;-52
2023/03/16 11:09:57;;;;;;;1.27;1.13;;;;;;;;;;6245041;28;20279;-53
2023/03/16 11:13:02;;;;;;;1.40;1.07;;;;;;;;;;6237592;28;20199;-51
2023/03/16 11:16:18;;;;;;;2.50;1.03;;;;;;;;;;6235707;28;20262;-52
2023/03/16 11:19:28;;;;;;;2.63;1.20;;;;;;;;;;6243280;28;20238;-54
2023/03/16 11:22:30;;;;;;;2.03;1.20;;;;;;;;;;6238391;28;20215;-54
2023/03/16 11:25:45;;;;;;;1.40;1.17;;;;;;;;;;6217641;28;20214;-55
2023/03/16 11:28:50;;;;;;;4.07;1.20;;;;;;;;;;6247548;28;20198;-53
2023/03/16 11:31:52;;;;;;;1.63;1.03;;;;;;;;;;6236654;28;20213;-55
2023/03/16 11:34:53;;;;;;;0.83;0.80;;;;;;;;;;6248584;28;20199;-53
2023/03/16 11:38:03;;;;;;;1.10;0.87;;;;;;;;;;6232045;28;20248;-54
2023/03/16 11:41:22;;;;;;;0.97;0.90;;;;;;;;;;6240130;28;20188;-52
2023/03/16 11:44:41;;;;;;;1.73;1.13;;;;;;;;;;6243654;28;20215;-56
2023/03/16 11:47:54;;;;;;;3.00;1.07;;;;;;;;;;6248791;28;20218;-53
2023/03/16 11:50:55;;;;;;;2.30;1.00;;;;;;;;;;6247337;28;20186;-53
2023/03/16 11:53:56;;;;;;;3.10;1.50;;;;;;;;;;6242456;28;20254;-53
2023/03/16 11:56:59;;;;;;;1.90;1.10;;;;;;;;;;6231580;28;20194;-54
2023/03/16 12:00:19;;;;;;;0.87;0.87;;;;;;;;;;6235095;28;20192;-54
2023/03/16 12:03:23;;;;;;;1.13;1.03;;;;;;;;;;6246706;28;20254;-50
2023/03/16 12:06:28;;;;;;;0.87;0.70;;;;;;;;;;6240965;28;20211;-54
2023/03/16 12:09:39;;;;;;;1.37;0.90;;;;;;;;;;6239988;28;20238;-56
2023/03/16 12:12:44;;;;;;;1.80;0.93;;;;;;;;;;6249856;28;20202;-56
2023/03/16 12:15:52;;;;;;;1.30;0.90;;;;;;;;;;6240423;28;20217;-55
2023/03/16 12:19:01;;;;;;;3.00;1.00;;;;;;;;;;6240602;28;20203;-56
2023/03/16 12:22:07;;;;;;;1.20;0.80;;;;;;;;;;6246942;28;20186;-56
2023/03/16 12:25:19;;;;;;;0.70;0.70;;;;;;;;;;6242826;28;20215;-53
2023/03/16 12:28:24;;;;;;;1.27;0.90;;;;;;;;;;6237960;28;20194;-57
2023/03/16 12:31:29;;;;;;;1.80;1.03;;;;;;;;;;6243286;28;20285;-58
2023/03/16 12:34:37;;;;;;;1.83;1.40;;;;;;;;;;6244011;28;20244;-58
2023/03/16 12:37:41;;;;;;;1.07;0.77;;;;;;;;;;6244450;28;20321;-59
2023/03/16 12:40:46;;;;;;;2.93;1.17;;;;;;;;;;6246044;28;20195;-58
2023/03/16 12:44:06;;;;;;;4.37;1.20;;;;;;;;;;6242388;28;20196;-58
2023/03/16 12:47:11;;;;;;;0.90;0.90;;;;;;;;;;6253928;28;20233;-58
2023/03/16 12:50:14;;;;;;;3.73;1.07;;;;;;;;;;6259285;28;20198;-59
2023/03/16 12:53:29;;;;;;;1.07;0.80;;;;;;;;;;6240810;28;20196;-58
2023/03/16 12:56:32;;;;;;;0.80;0.80;;;;;;;;;;6239228;28;20191;-58
2023/03/16 12:59:39;;;;;;;0.67;0.67;;;;;;;;;;6246630;28;20195;-54
2023/03/16 13:02:50;;;;;;;1.07;0.90;;;;;;;;;;6238782;28;20248;-55
2023/03/16 13:05:54;;;;;;;1.17;1.00;;;;;;;;;;6242786;28;20232;-56
2023/03/16 13:08:58;;;;;;;1.10;1.00;;;;;;;;;;6237228;28;20281;-56
2023/03/16 13:12:03;;;;;;;0.67;0.63;;;;;;;;;;6244220;28;20183;-56
2023/03/16 13:15:15;;;;;;;1.17;0.83;;;;;;;;;;6245974;28;20215;-56
2023/03/16 13:18:16;;;;;;;1.03;0.70;;;;;;;;;;6238518;28;20214;-56
2023/03/16 13:21:22;;;;;;;1.30;1.00;;;;;;;;;;6245934;28;20194;-56
2023/03/16 13:24:28;;;;;;;2.30;0.87;;;;;;;;;;6245228;28;20278;-53
2023/03/16 13:27:30;;;;;;;0.70;0.70;;;;;;;;;;6247273;28;20190;-56
2023/03/16 13:30:32;;;;;;;0.70;0.67;;;;;;;;;;6237946;28;20192;-56
2023/03/16 13:33:35;;;;;;;1.23;0.80;;;;;;;;;;6244126;28;20201;-57
2023/03/16 13:36:37;;;;;;;1.10;0.90;;;;;;;;;;6246252;28;20242;-55
2023/03/16 13:39:38;;;;;;;2.53;1.03;;;;;;;;;;6229546;28;20198;-57
2023/03/16 13:42:38;;;;;;;1.60;0.93;;;24.50;17.00;;;;;;6224345;28;20209;-57
2023/03/16 13:45:40;;;;;;;1.70;0.97;;;;;;;;;;6238431;28;20206;-57
2023/03/16 13:48:41;;;;;;;2.30;0.90;;;;;;;;;;6238346;28;20195;-57
2023/03/16 13:51:44;;;;;;;1.40;0.80;;;;;;;;;;6220737;28;20214;-57
2023/03/16 13:54:45;;;;;;;1.57;1.10;;;;;;;;;;6222831;28;20206;-57
2023/03/16 13:57:48;;;;;;;2.03;1.10;;;27.30;14.60;;;;;;6253657;28;20221;-57
2023/03/16 14:00:48;;;;;;;1.10;0.70;;;27.10;14.80;;;;;;6237696;28;20198;-57
2023/03/16 14:03:50;;;;;;;1.97;0.70;;;;;;;;;;6242402;28;20212;-57
2023/03/16 14:06:53;;;;;;;1.43;0.90;;;;;;;;;;6241568;28;20178;-57
2023/03/16 14:09:57;;;;;;;2.43;1.07;;;28.90;15.10;;;;;;6242126;28;20213;-56
2023/03/16 14:13:08;;;;;;;1.87;0.70;;;31.00;13.60;;;;;;6227163;28;20186;-57
2023/03/16 14:16:16;;;;;;;0.93;0.90;;;30.90;14.10;;;;;;6219852;28;20195;-58
2023/03/16 14:19:21;;;;;;;1.70;0.80;;;;;;;;;;6238808;28;20193;-57
2023/03/16 14:22:24;;;;;;;1.30;0.85;;;;;;;;;;6243174;28;20254;-57
2023/03/16 14:25:26;;;;;;;1.30;0.90;;;;;;;;;;6243294;28;20232;-56
2023/03/16 14:28:29;;;;;;;0.80;0.70;;;;;;;;;;6242895;28;20191;-58
2023/03/16 14:31:35;;;;;;;1.27;0.83;;;;;;;;;;6240783;28;20198;-59
2023/03/16 14:34:38;;;;;;;1.07;0.77;;;;;;;;;;6241885;28;20274;-59
2023/03/16 14:37:40;;;;;;;1.03;0.67;;;;;;;;;;6240699;28;20237;-58
2023/03/16 14:40:51;;;;;;;1.67;0.88;;;;;;;;;;6229873;28;20182;-58
2023/03/16 14:43:59;;;;;;;2.33;0.75;;;;;;;;;;6232443;28;20183;-58
2023/03/16 14:47:02;;;;;;;2.10;0.82;;;30.60;14.30;;;;;;6242797;28;20252;-58
2023/03/16 14:50:08;;;;;;;1.20;0.70;;;32.00;13.70;;;;;;6234698;28;20226;-54
2023/03/16 14:53:10;;;;;;;0.93;0.90;;;;;;;;;;6239598;28;20187;-54
2023/03/16 14:56:15;;;;;;;1.37;0.73;;;;;;;;;;6235542;28;20213;-55
2023/03/16 14:59:16;;;;;;;0.70;0.70;;;;;;;;;;6241895;28;20234;-55
2023/03/16 15:02:28;;;;;;;1.27;0.80;;;;;;;;;;6242580;28;20208;-55
2023/03/16 15:05:38;;;;;;;1.10;0.90;;;31.20;13.60;;;;;;6244730;28;20211;-52
2023/03/16 15:08:44;;;;;;;0.70;0.70;;;29.70;14.60;;;;;;6245863;28;20197;-51
2023/03/16 15:11:45;;;;;;;1.13;0.90;;;;;;;;;;6240151;28;20191;-53
2023/03/16 15:18:06;;;;;;;1.17;1.00;;;30.50;14.20;;;;;;6238750;28;20271;-53
2023/03/16 15:21:15;;;;;;;1.60;0.90;;;;;;;;;;6247566;28;20255;-51
2023/03/16 15:24:16;;;;;;;2.43;0.90;;;;;;;;;;6244130;28;20214;-50
2023/03/16 15:27:19;;;;;;;3.87;0.90;;;;;;;;;;6230356;28;20347;-55
2023/03/16 15:30:25;;;;;;;3.70;0.80;;;;;;;;;;6249122;28;20203;-52
2023/03/16 15:33:26;;;;;;;0.90;0.90;;;;;;;;;;6248187;28;20230;-56
2023/03/16 15:36:27;;;;;;;1.20;0.90;;;;;;;;;;6250088;28;20746;-53
2023/03/16 15:39:28;;;;;;;1.33;0.70;;;;;;;;;;6247802;28;20198;-50
2023/03/16 15:42:29;;;;;;;1.37;1.00;;;;;;;;;;6234442;28;20190;-58
2023/03/16 15:45:30;;;;;;;0.73;0.73;;;29.30;14.00;;;;;;6263469;28;20280;-55
2023/03/16 15:48:32;;;;;;;2.47;1.07;;;25.40;15.30;;;;;;6250095;28;20190;-53
2023/03/16 15:51:33;;;;;;;1.13;0.90;;;;;;;;;;6235577;28;20201;-49
2023/03/16 15:54:34;;;;;;;1.43;0.80;;;;;;;;;;6235392;28;20218;-55
2023/03/16 15:57:35;;;;;;;1.10;0.90;;;;;;;;;;6229499;28;20191;-56
2023/03/16 16:00:38;;;;;;;1.33;0.93;;;;;;;;;;6249739;28;20194;-54
2023/03/16 16:03:39;;;;;;;2.97;1.20;;;;;;;;;;6249220;28;20189;-51
2023/03/16 16:06:40;;;;;;;1.03;0.87;;;;;;;;;;6225957;28;20245;-55
2023/03/16 16:09:41;;;;;;;1.50;1.13;;;;;;;;;;6234808;28;20178;-54
2023/03/16 16:12:50;;;;;;;1.20;0.97;;;25.60;16.20;;;;;;6237796;28;20227;-54
2023/03/16 16:15:51;;;;;;;1.53;0.90;;;;;;;;;;6210141;28;20211;-55
2023/03/16 16:18:52;;;;;;;1.67;1.13;;;;;;;;;;6235684;28;20201;-53
2023/03/16 16:21:53;;;;;;;3.10;1.60;;;;;;;;;;6239150;28;20202;-51
2023/03/16 16:24:54;;;;;;;2.80;1.40;;;;;;;;;;6228819;28;20224;-49
2023/03/16 16:27:55;;;;;;;1.70;1.33;;;;;;;;;;6233476;28;20216;-52
2023/03/16 16:30:57;;;;;;;1.30;1.20;;;;;;;;;;6249386;28;20194;-51
2023/03/16 16:33:58;;;;;;;2.13;1.20;;;;;;;;;;6245658;28;20286;-53
2023/03/16 16:36:59;;;;;;;1.60;0.97;;;;;;;;;;6244588;28;20264;-53
2023/03/16 16:40:00;;;;;;;1.77;1.00;;;;;;;;;;6247822;28;20201;-54
2023/03/16 16:43:02;;;;;;;1.53;1.23;;;;;;;;;;6230061;28;20198;-53
2023/03/16 16:46:12;;;;;;;2.10;1.07;;;;;;;;;;6246390;28;20299;-50
2023/03/16 16:49:29;;;;;;;1.50;1.30;;;;;;;;;;6241657;28;20210;-54
2023/03/16 16:52:31;;;;;;;1.10;0.97;;;;;;;;;;6243259;28;20188;-58
2023/03/16 16:55:32;;;;;;;1.20;1.10;;;;;;;;;;6216241;28;20195;-58
2023/03/16 16:58:34;;;;;;;2.53;1.20;;;;;;;;;;6244613;28;20199;-59
2023/03/16 17:01:35;;;;;;;1.30;1.10;;;;;;;;;;6232590;28;20198;-60
2023/03/16 17:04:36;;;;;;;1.10;1.00;;;;;;;;;;6241158;28;20206;-59
2023/03/16 17:07:37;;;;;;;1.90;1.00;;;;;;;;;;6230359;28;20194;-59
2023/03/16 17:10:40;;;;;;;0.80;0.80;;;;;;;;;;6248632;28;20194;-57
2023/03/16 17:13:42;;;;;;;1.90;1.27;;;;;;;;;;6228996;28;20196;-57
2023/03/16 17:16:43;;;;;;;1.77;1.13;;;;;;;;;;6224205;28;20210;-56
2023/03/16 17:19:45;;;;;;;1.07;1.00;;;;;;;;;;6243956;28;20187;-57
2023/03/16 17:22:47;;;;;;;1.10;1.00;;;;;;;;;;6245241;28;20254;-56
2023/03/16 17:25:49;;;;;;;1.40;1.30;;;;;;;;;;6243137;28;20215;-56
2023/03/16 17:28:54;;;;;;;1.63;1.30;;;;;;;;;;6238908;28;20187;-57
2023/03/16 17:31:55;;;;;;;4.00;1.90;;;;;;;;;;6242347;28;20194;-57
2023/03/16 17:34:56;;;;;;;2.00;1.30;;;;;;;;;;6231745;28;20205;-56
2023/03/16 17:37:58;;;;;;;3.87;1.50;;;;;;;;;;6247032;28;20225;-59
2023/03/16 17:41:00;;;;;;;2.27;1.20;;;;;;;;;;6236131;28;20277;-58
2023/03/16 17:44:03;;;;;;;1.60;1.50;;;;;;;;;;6241914;28;20224;-55
2023/03/16 17:47:15;;;;;;;3.90;1.80;;;;;;;;;;6239067;28;20187;-54
2023/03/16 17:50:18;;;;;;;2.80;1.77;;;;;;;;;;6241717;28;20270;-58
2023/03/16 17:53:20;;;;;;;2.20;1.50;;;;;;;;;;6248024;28;20197;-58
2023/03/16 17:56:26;;;;;;;2.00;1.80;;;;;;;;;;6226682;28;20227;-58
2023/03/16 17:59:28;;;;;;;2.33;1.73;;;;;;;;;;6240184;28;20191;-58
2023/03/16 18:02:36;;;;;;;2.33;1.63;;;;;;;;;;6233232;28;20223;-57
2023/03/16 18:05:37;;;;;;;4.17;1.60;;;;;;;;;;6238524;28;20214;-58
2023/03/16 18:08:39;;;;;;;2.43;1.83;;;;;;;;;;6229402;28;20201;-58
2023/03/16 18:11:45;;;;;;;2.37;2.17;;;;;;;;;;6228135;28;20194;-59
2023/03/16 18:14:47;;;;;;;2.37;2.03;;;;;;;;;;6239373;28;20191;-59